sensor_id;sensor_type;location;lat;lon;timestamp;temperature;humidity
59556;DHT22;45374;52.746;6.304;2023-05-10T00:00:07;12.70;99.90
59556;DHT22;45374;52.746;6.304;2023-05-10T00:02:34;12.50;99.90
59556;DHT22;45374;52.746;6.304;2023-05-10T00:05:00;12.70;99.90
59556;DHT22;45374;52.746;6.304;2023-05-10T00:07:25;12.50;99.90
59556;DHT22;45374;52.746;6.304;2023-05-10T00:09:51;12.60;99.90
59556;DHT22;45374;52.746;6.304;2023-05-10T00:12:16;12.60;99.90
59556;DHT22;45374;52.746;6.304;2023-05-10T00:14:42;12.60;99.90
59556;DHT22;45374;52.746;6.304;2023-05-10T00:17:08;12.70;99.90
59556;DHT22;45374;52.746;6.304;2023-05-10T00:19:33;12.50;99.90
59556;DHT22;45374;52.746;6.304;2023-05-10T00:21:59;12.60;99.90
59556;DHT22;45374;52.746;6.304;2023-05-10T00:24:24;12.60;99.90
59556;DHT22;45374;52.746;6.304;2023-05-10T00:26:50;12.60;99.90
59556;DHT22;45374;52.746;6.304;2023-05-10T00:29:15;12.60;99.90
59556;DHT22;45374;52.746;6.304;2023-05-10T00:31:41;12.40;99.90
59556;DHT22;45374;52.746;6.304;2023-05-10T00:34:06;12.50;99.90
59556;DHT22;45374;52.746;6.304;2023-05-10T00:36:32;12.40;99.90
59556;DHT22;45374;52.746;6.304;2023-05-10T00:38:58;12.50;99.90
59556;DHT22;45374;52.746;6.304;2023-05-10T00:41:23;12.50;99.90
59556;DHT22;45374;52.746;6.304;2023-05-10T00:43:49;12.40;99.90
59556;DHT22;45374;52.746;6.304;2023-05-10T00:46:15;12.30;99.90
59556;DHT22;45374;52.746;6.304;2023-05-10T00:48:42;12.40;99.90
59556;DHT22;45374;52.746;6.304;2023-05-10T00:51:07;12.40;99.90
59556;DHT22;45374;52.746;6.304;2023-05-10T00:53:34;12.50;99.90
59556;DHT22;45374;52.746;6.304;2023-05-10T00:56:00;12.40;99.90
59556;DHT22;45374;52.746;6.304;2023-05-10T00:58:27;12.40;99.90
59556;DHT22;45374;52.746;6.304;2023-05-10T01:00:55;12.50;99.90
59556;DHT22;45374;52.746;6.304;2023-05-10T01:03:21;12.50;99.90
59556;DHT22;45374;52.746;6.304;2023-05-10T01:05:47;12.50;99.90
59556;DHT22;45374;52.746;6.304;2023-05-10T01:08:12;12.50;99.90
59556;DHT22;45374;52.746;6.304;2023-05-10T01:10:38;12.40;99.90
59556;DHT22;45374;52.746;6.304;2023-05-10T01:13:04;12.20;99.90
59556;DHT22;45374;52.746;6.304;2023-05-10T01:15:30;12.40;99.90
59556;DHT22;45374;52.746;6.304;2023-05-10T01:17:57;12.20;99.90
59556;DHT22;45374;52.746;6.304;2023-05-10T01:20:23;12.20;99.90
59556;DHT22;45374;52.746;6.304;2023-05-10T01:28:58;12.40;99.90
59556;DHT22;45374;52.746;6.304;2023-05-10T01:32:03;12.20;99.90
59556;DHT22;45374;52.746;6.304;2023-05-10T01:34:52;12.10;99.90
59556;DHT22;45374;52.746;6.304;2023-05-10T01:37:40;12.10;99.90
59556;DHT22;45374;52.746;6.304;2023-05-10T01:42:42;12.20;99.90
59556;DHT22;45374;52.746;6.304;2023-05-10T01:48:14;12.10;99.90
59556;DHT22;45374;52.746;6.304;2023-05-10T01:50:43;12.20;99.90
59556;DHT22;45374;52.746;6.304;2023-05-10T01:53:11;12.30;99.90
59556;DHT22;45374;52.746;6.304;2023-05-10T01:55:52;12.30;99.90
59556;DHT22;45374;52.746;6.304;2023-05-10T01:58:32;12.20;99.90
59556;DHT22;45374;52.746;6.304;2023-05-10T02:01:00;12.10;99.90
59556;DHT22;45374;52.746;6.304;2023-05-10T02:03:28;12.10;99.90
59556;DHT22;45374;52.746;6.304;2023-05-10T02:05:56;12.00;99.90
59556;DHT22;45374;52.746;6.304;2023-05-10T02:08:22;12.10;99.90
59556;DHT22;45374;52.746;6.304;2023-05-10T02:10:51;12.00;99.90
59556;DHT22;45374;52.746;6.304;2023-05-10T02:13:18;12.00;99.90
59556;DHT22;45374;52.746;6.304;2023-05-10T02:15:47;12.20;99.90
59556;DHT22;45374;52.746;6.304;2023-05-10T02:18:13;12.00;99.90
59556;DHT22;45374;52.746;6.304;2023-05-10T02:20:40;12.10;99.90
59556;DHT22;45374;52.746;6.304;2023-05-10T02:23:08;12.20;99.90
59556;DHT22;45374;52.746;6.304;2023-05-10T02:25:37;12.20;99.90
59556;DHT22;45374;52.746;6.304;2023-05-10T02:28:05;12.20;99.90
59556;DHT22;45374;52.746;6.304;2023-05-10T02:30:32;12.20;99.90
59556;DHT22;45374;52.746;6.304;2023-05-10T02:33:00;12.10;99.90
59556;DHT22;45374;52.746;6.304;2023-05-10T02:35:28;12.00;99.90
59556;DHT22;45374;52.746;6.304;2023-05-10T02:37:54;12.20;99.90
59556;DHT22;45374;52.746;6.304;2023-05-10T02:40:21;12.10;99.90
59556;DHT22;45374;52.746;6.304;2023-05-10T02:42:48;12.20;99.90
59556;DHT22;45374;52.746;6.304;2023-05-10T02:45:19;12.20;99.90
59556;DHT22;45374;52.746;6.304;2023-05-10T02:47:45;12.00;99.90
59556;DHT22;45374;52.746;6.304;2023-05-10T02:50:10;12.30;99.90
59556;DHT22;45374;52.746;6.304;2023-05-10T02:52:43;12.20;99.90
59556;DHT22;45374;52.746;6.304;2023-05-10T02:55:12;12.10;99.90
59556;DHT22;45374;52.746;6.304;2023-05-10T02:57:43;12.20;99.90
59556;DHT22;45374;52.746;6.304;2023-05-10T03:00:11;12.00;99.90
59556;DHT22;45374;52.746;6.304;2023-05-10T03:02:36;12.20;99.90
59556;DHT22;45374;52.746;6.304;2023-05-10T03:05:02;12.20;99.90
59556;DHT22;45374;52.746;6.304;2023-05-10T03:07:29;12.00;99.90
59556;DHT22;45374;52.746;6.304;2023-05-10T03:09:55;12.10;99.90
59556;DHT22;45374;52.746;6.304;2023-05-10T03:12:52;12.20;99.90
59556;DHT22;45374;52.746;6.304;2023-05-10T03:15:25;12.20;99.90
59556;DHT22;45374;52.746;6.304;2023-05-10T03:18:17;12.20;99.90
59556;DHT22;45374;52.746;6.304;2023-05-10T03:20:49;12.20;99.90
59556;DHT22;45374;52.746;6.304;2023-05-10T03:25:44;12.00;99.90
59556;DHT22;45374;52.746;6.304;2023-05-10T03:28:12;12.10;99.90
59556;DHT22;45374;52.746;6.304;2023-05-10T03:30:39;12.20;99.90
59556;DHT22;45374;52.746;6.304;2023-05-10T03:33:06;12.10;99.90
59556;DHT22;45374;52.746;6.304;2023-05-10T03:35:32;12.20;99.90
59556;DHT22;45374;52.746;6.304;2023-05-10T03:37:57;12.00;99.90
59556;DHT22;45374;52.746;6.304;2023-05-10T03:40:24;12.20;99.90
59556;DHT22;45374;52.746;6.304;2023-05-10T03:42:50;12.20;99.90
59556;DHT22;45374;52.746;6.304;2023-05-10T03:45:15;12.20;99.90
59556;DHT22;45374;52.746;6.304;2023-05-10T03:47:41;12.20;99.90
59556;DHT22;45374;52.746;6.304;2023-05-10T03:50:07;12.10;99.90
59556;DHT22;45374;52.746;6.304;2023-05-10T03:52:33;12.30;99.90
59556;DHT22;45374;52.746;6.304;2023-05-10T03:54:58;12.20;99.90
59556;DHT22;45374;52.746;6.304;2023-05-10T03:57:24;12.10;99.90
59556;DHT22;45374;52.746;6.304;2023-05-10T03:59:49;12.10;99.90
59556;DHT22;45374;52.746;6.304;2023-05-10T04:02:15;12.10;99.90
59556;DHT22;45374;52.746;6.304;2023-05-10T04:04:41;12.30;99.90
59556;DHT22;45374;52.746;6.304;2023-05-10T04:07:07;12.10;99.90
59556;DHT22;45374;52.746;6.304;2023-05-10T04:09:33;12.20;99.90
59556;DHT22;45374;52.746;6.304;2023-05-10T04:11:59;12.30;99.90
59556;DHT22;45374;52.746;6.304;2023-05-10T04:14:25;12.30;99.90
59556;DHT22;45374;52.746;6.304;2023-05-10T04:16:51;12.10;99.90
59556;DHT22;45374;52.746;6.304;2023-05-10T04:19:16;12.10;99.90
59556;DHT22;45374;52.746;6.304;2023-05-10T04:21:42;12.30;99.90
59556;DHT22;45374;52.746;6.304;2023-05-10T04:24:08;12.20;99.90
59556;DHT22;45374;52.746;6.304;2023-05-10T04:26:33;12.10;99.90
59556;DHT22;45374;52.746;6.304;2023-05-10T04:28:59;12.30;99.90
59556;DHT22;45374;52.746;6.304;2023-05-10T04:31:24;12.10;99.90
59556;DHT22;45374;52.746;6.304;2023-05-10T04:33:50;12.10;99.90
59556;DHT22;45374;52.746;6.304;2023-05-10T04:36:15;12.10;99.90
59556;DHT22;45374;52.746;6.304;2023-05-10T04:38:41;12.10;99.90
59556;DHT22;45374;52.746;6.304;2023-05-10T04:41:09;12.20;99.90
59556;DHT22;45374;52.746;6.304;2023-05-10T04:43:36;12.20;99.90
59556;DHT22;45374;52.746;6.304;2023-05-10T04:46:02;12.20;99.90
59556;DHT22;45374;52.746;6.304;2023-05-10T04:48:28;12.10;99.90
59556;DHT22;45374;52.746;6.304;2023-05-10T04:50:53;12.00;99.90
59556;DHT22;45374;52.746;6.304;2023-05-10T04:53:19;12.10;99.90
59556;DHT22;45374;52.746;6.304;2023-05-10T04:55:44;12.10;99.90
59556;DHT22;45374;52.746;6.304;2023-05-10T04:58:11;12.10;99.90
59556;DHT22;45374;52.746;6.304;2023-05-10T05:00:36;12.10;99.90
59556;DHT22;45374;52.746;6.304;2023-05-10T05:03:02;12.20;99.90
59556;DHT22;45374;52.746;6.304;2023-05-10T05:05:27;12.10;99.90
59556;DHT22;45374;52.746;6.304;2023-05-10T05:07:53;12.20;99.90
59556;DHT22;45374;52.746;6.304;2023-05-10T05:10:18;12.10;99.90
59556;DHT22;45374;52.746;6.304;2023-05-10T05:12:44;12.00;99.90
59556;DHT22;45374;52.746;6.304;2023-05-10T05:15:10;12.00;99.90
59556;DHT22;45374;52.746;6.304;2023-05-10T05:17:36;12.20;99.90
59556;DHT22;45374;52.746;6.304;2023-05-10T05:20:02;12.20;99.90
59556;DHT22;45374;52.746;6.304;2023-05-10T05:22:28;12.00;99.90
59556;DHT22;45374;52.746;6.304;2023-05-10T05:24:54;12.10;99.90
59556;DHT22;45374;52.746;6.304;2023-05-10T05:27:20;12.20;99.90
59556;DHT22;45374;52.746;6.304;2023-05-10T05:29:53;12.00;99.90
59556;DHT22;45374;52.746;6.304;2023-05-10T05:32:19;12.10;99.90
59556;DHT22;45374;52.746;6.304;2023-05-10T05:34:45;12.00;99.90
59556;DHT22;45374;52.746;6.304;2023-05-10T05:37:19;12.10;99.90
59556;DHT22;45374;52.746;6.304;2023-05-10T05:39:46;12.00;99.90
59556;DHT22;45374;52.746;6.304;2023-05-10T05:42:12;12.20;99.90
59556;DHT22;45374;52.746;6.304;2023-05-10T05:44:39;12.20;99.90
59556;DHT22;45374;52.746;6.304;2023-05-10T05:47:05;12.30;99.90
59556;DHT22;45374;52.746;6.304;2023-05-10T05:49:31;12.10;99.90
59556;DHT22;45374;52.746;6.304;2023-05-10T05:52:03;12.20;99.90
59556;DHT22;45374;52.746;6.304;2023-05-10T05:54:29;12.30;99.90
59556;DHT22;45374;52.746;6.304;2023-05-10T05:56:58;12.40;99.90
59556;DHT22;45374;52.746;6.304;2023-05-10T05:59:25;12.20;99.90
59556;DHT22;45374;52.746;6.304;2023-05-10T06:01:50;12.40;99.90
59556;DHT22;45374;52.746;6.304;2023-05-10T06:04:16;12.40;99.90
59556;DHT22;45374;52.746;6.304;2023-05-10T06:06:42;12.30;99.90
59556;DHT22;45374;52.746;6.304;2023-05-10T06:09:08;12.50;99.90
59556;DHT22;45374;52.746;6.304;2023-05-10T06:11:35;12.40;99.90
59556;DHT22;45374;52.746;6.304;2023-05-10T06:14:01;12.50;99.90
59556;DHT22;45374;52.746;6.304;2023-05-10T06:16:27;12.50;99.90
59556;DHT22;45374;52.746;6.304;2023-05-10T06:18:53;12.80;99.90
59556;DHT22;45374;52.746;6.304;2023-05-10T06:21:18;12.80;99.90
59556;DHT22;45374;52.746;6.304;2023-05-10T06:23:44;12.80;99.90
59556;DHT22;45374;52.746;6.304;2023-05-10T06:26:10;12.90;99.90
59556;DHT22;45374;52.746;6.304;2023-05-10T06:28:35;12.80;99.90
59556;DHT22;45374;52.746;6.304;2023-05-10T06:31:03;13.10;99.90
59556;DHT22;45374;52.746;6.304;2023-05-10T06:33:29;12.90;99.90
59556;DHT22;45374;52.746;6.304;2023-05-10T06:35:55;13.20;99.90
59556;DHT22;45374;52.746;6.304;2023-05-10T06:38:21;13.10;99.90
59556;DHT22;45374;52.746;6.304;2023-05-10T06:40:46;13.10;99.90
59556;DHT22;45374;52.746;6.304;2023-05-10T06:43:12;12.90;99.90
59556;DHT22;45374;52.746;6.304;2023-05-10T06:45:37;13.00;99.90
59556;DHT22;45374;52.746;6.304;2023-05-10T06:48:05;12.80;99.90
59556;DHT22;45374;52.746;6.304;2023-05-10T06:50:31;12.90;99.90
59556;DHT22;45374;52.746;6.304;2023-05-10T06:52:56;12.80;99.90
59556;DHT22;45374;52.746;6.304;2023-05-10T06:55:22;12.80;99.90
59556;DHT22;45374;52.746;6.304;2023-05-10T06:57:47;12.90;99.90
59556;DHT22;45374;52.746;6.304;2023-05-10T07:00:13;13.00;99.90
59556;DHT22;45374;52.746;6.304;2023-05-10T07:02:39;12.90;99.90
59556;DHT22;45374;52.746;6.304;2023-05-10T07:05:05;12.90;99.90
59556;DHT22;45374;52.746;6.304;2023-05-10T07:07:31;13.00;99.90
59556;DHT22;45374;52.746;6.304;2023-05-10T07:09:57;13.00;99.90
59556;DHT22;45374;52.746;6.304;2023-05-10T07:12:23;12.80;99.90
59556;DHT22;45374;52.746;6.304;2023-05-10T07:14:49;13.00;99.90
59556;DHT22;45374;52.746;6.304;2023-05-10T07:17:15;13.00;99.90
59556;DHT22;45374;52.746;6.304;2023-05-10T07:19:40;13.00;99.90
59556;DHT22;45374;52.746;6.304;2023-05-10T07:22:06;12.80;99.90
59556;DHT22;45374;52.746;6.304;2023-05-10T07:24:32;13.00;99.90
59556;DHT22;45374;52.746;6.304;2023-05-10T07:26:58;12.90;99.90
59556;DHT22;45374;52.746;6.304;2023-05-10T07:29:24;12.80;99.90
59556;DHT22;45374;52.746;6.304;2023-05-10T07:31:49;12.90;99.90
59556;DHT22;45374;52.746;6.304;2023-05-10T07:34:15;12.90;99.90
59556;DHT22;45374;52.746;6.304;2023-05-10T07:36:41;12.80;99.90
59556;DHT22;45374;52.746;6.304;2023-05-10T07:39:06;13.00;99.90
59556;DHT22;45374;52.746;6.304;2023-05-10T07:41:32;13.00;99.90
59556;DHT22;45374;52.746;6.304;2023-05-10T07:43:58;13.10;99.90
59556;DHT22;45374;52.746;6.304;2023-05-10T07:46:23;13.20;99.90
59556;DHT22;45374;52.746;6.304;2023-05-10T07:48:49;13.30;99.90
59556;DHT22;45374;52.746;6.304;2023-05-10T07:51:15;13.40;99.90
59556;DHT22;45374;52.746;6.304;2023-05-10T07:53:40;13.60;99.90
59556;DHT22;45374;52.746;6.304;2023-05-10T07:56:25;13.70;99.90
59556;DHT22;45374;52.746;6.304;2023-05-10T07:58:53;13.90;99.90
59556;DHT22;45374;52.746;6.304;2023-05-10T08:01:19;14.00;99.90
59556;DHT22;45374;52.746;6.304;2023-05-10T08:03:45;14.00;99.90
59556;DHT22;45374;52.746;6.304;2023-05-10T08:06:11;14.10;99.90
59556;DHT22;45374;52.746;6.304;2023-05-10T08:08:40;14.10;99.90
59556;DHT22;45374;52.746;6.304;2023-05-10T08:11:05;14.20;99.90
59556;DHT22;45374;52.746;6.304;2023-05-10T08:13:31;14.20;99.90
59556;DHT22;45374;52.746;6.304;2023-05-10T08:15:56;14.20;99.90
59556;DHT22;45374;52.746;6.304;2023-05-10T08:18:22;14.20;99.90
59556;DHT22;45374;52.746;6.304;2023-05-10T08:20:48;14.20;99.90
59556;DHT22;45374;52.746;6.304;2023-05-10T08:23:13;14.00;99.90
59556;DHT22;45374;52.746;6.304;2023-05-10T08:25:39;14.00;99.90
59556;DHT22;45374;52.746;6.304;2023-05-10T08:28:05;14.00;99.90
59556;DHT22;45374;52.746;6.304;2023-05-10T08:30:31;14.10;99.90
59556;DHT22;45374;52.746;6.304;2023-05-10T08:32:56;14.20;99.90
59556;DHT22;45374;52.746;6.304;2023-05-10T08:35:22;14.20;99.90
59556;DHT22;45374;52.746;6.304;2023-05-10T08:37:47;14.10;99.90
59556;DHT22;45374;52.746;6.304;2023-05-10T08:40:14;13.90;99.90
59556;DHT22;45374;52.746;6.304;2023-05-10T08:42:47;13.80;99.90
59556;DHT22;45374;52.746;6.304;2023-05-10T08:45:17;13.80;99.90
59556;DHT22;45374;52.746;6.304;2023-05-10T08:47:43;13.80;99.90
59556;DHT22;45374;52.746;6.304;2023-05-10T08:50:10;13.90;99.90
59556;DHT22;45374;52.746;6.304;2023-05-10T08:52:38;13.90;99.90
59556;DHT22;45374;52.746;6.304;2023-05-10T08:55:05;13.90;99.90
59556;DHT22;45374;52.746;6.304;2023-05-10T08:57:31;13.80;99.90
59556;DHT22;45374;52.746;6.304;2023-05-10T08:59:57;13.90;99.90
59556;DHT22;45374;52.746;6.304;2023-05-10T09:02:24;14.00;99.90
59556;DHT22;45374;52.746;6.304;2023-05-10T09:04:50;14.20;99.90
59556;DHT22;45374;52.746;6.304;2023-05-10T09:07:16;14.20;99.90
59556;DHT22;45374;52.746;6.304;2023-05-10T09:09:47;14.30;99.90
59556;DHT22;45374;52.746;6.304;2023-05-10T09:12:13;14.30;99.90
59556;DHT22;45374;52.746;6.304;2023-05-10T09:14:41;14.30;99.90
59556;DHT22;45374;52.746;6.304;2023-05-10T09:17:07;14.30;99.90
59556;DHT22;45374;52.746;6.304;2023-05-10T09:19:33;14.20;99.90
59556;DHT22;45374;52.746;6.304;2023-05-10T09:21:58;14.30;99.90
59556;DHT22;45374;52.746;6.304;2023-05-10T09:24:26;14.30;99.90
59556;DHT22;45374;52.746;6.304;2023-05-10T09:26:52;14.30;99.90
59556;DHT22;45374;52.746;6.304;2023-05-10T09:29:18;14.20;99.90
59556;DHT22;45374;52.746;6.304;2023-05-10T09:34:19;14.40;99.90
59556;DHT22;45374;52.746;6.304;2023-05-10T09:36:57;14.40;99.90
59556;DHT22;45374;52.746;6.304;2023-05-10T09:39:37;14.50;99.90
59556;DHT22;45374;52.746;6.304;2023-05-10T09:42:05;14.50;99.90
59556;DHT22;45374;52.746;6.304;2023-05-10T09:44:34;14.60;99.90
59556;DHT22;45374;52.746;6.304;2023-05-10T09:47:02;14.60;99.90
59556;DHT22;45374;52.746;6.304;2023-05-10T09:49:29;14.70;99.90
59556;DHT22;45374;52.746;6.304;2023-05-10T09:52:06;14.70;99.90
59556;DHT22;45374;52.746;6.304;2023-05-10T09:54:32;14.70;99.90
59556;DHT22;45374;52.746;6.304;2023-05-10T09:56:58;14.70;99.90
59556;DHT22;45374;52.746;6.304;2023-05-10T09:59:25;14.70;99.90
59556;DHT22;45374;52.746;6.304;2023-05-10T10:01:58;14.70;99.90
59556;DHT22;45374;52.746;6.304;2023-05-10T10:04:26;14.80;99.90
59556;DHT22;45374;52.746;6.304;2023-05-10T10:07:00;14.90;99.90
59556;DHT22;45374;52.746;6.304;2023-05-10T10:09:27;14.90;99.90
59556;DHT22;45374;52.746;6.304;2023-05-10T10:11:54;15.00;99.90
59556;DHT22;45374;52.746;6.304;2023-05-10T10:14:20;15.10;99.90
59556;DHT22;45374;52.746;6.304;2023-05-10T10:16:49;15.10;99.90
59556;DHT22;45374;52.746;6.304;2023-05-10T10:19:15;15.20;99.90
59556;DHT22;45374;52.746;6.304;2023-05-10T10:21:40;15.30;99.90
59556;DHT22;45374;52.746;6.304;2023-05-10T10:24:06;15.20;99.90
59556;DHT22;45374;52.746;6.304;2023-05-10T10:26:35;15.10;99.90
59556;DHT22;45374;52.746;6.304;2023-05-10T10:29:18;15.10;99.90
59556;DHT22;45374;52.746;6.304;2023-05-10T10:34:39;15.10;99.90
59556;DHT22;45374;52.746;6.304;2023-05-10T10:37:06;15.10;99.90
59556;DHT22;45374;52.746;6.304;2023-05-10T10:39:32;14.90;99.90
59556;DHT22;45374;52.746;6.304;2023-05-10T10:41:58;14.80;99.90
59556;DHT22;45374;52.746;6.304;2023-05-10T10:44:54;14.70;99.90
59556;DHT22;45374;52.746;6.304;2023-05-10T10:47:36;14.60;99.90
59556;DHT22;45374;52.746;6.304;2023-05-10T10:50:04;14.50;99.90
59556;DHT22;45374;52.746;6.304;2023-05-10T10:52:37;14.50;99.90
59556;DHT22;45374;52.746;6.304;2023-05-10T10:57:47;14.40;99.90
59556;DHT22;45374;52.746;6.304;2023-05-10T11:00:30;14.50;99.90
59556;DHT22;45374;52.746;6.304;2023-05-10T11:05:48;14.40;99.90
59556;DHT22;45374;52.746;6.304;2023-05-10T11:11:09;14.20;99.90
59556;DHT22;45374;52.746;6.304;2023-05-10T11:16:21;14.40;99.90
59556;DHT22;45374;52.746;6.304;2023-05-10T11:19:06;14.40;99.90
59556;DHT22;45374;52.746;6.304;2023-05-10T11:21:33;14.50;99.90
59556;DHT22;45374;52.746;6.304;2023-05-10T11:24:00;14.40;99.90
59556;DHT22;45374;52.746;6.304;2023-05-10T11:26:32;14.50;99.90
59556;DHT22;45374;52.746;6.304;2023-05-10T11:29:00;14.50;99.90
59556;DHT22;45374;52.746;6.304;2023-05-10T11:31:27;14.60;99.90
59556;DHT22;45374;52.746;6.304;2023-05-10T11:33:58;14.60;99.90
59556;DHT22;45374;52.746;6.304;2023-05-10T11:36:34;14.70;99.90
59556;DHT22;45374;52.746;6.304;2023-05-10T11:39:01;14.60;99.90
59556;DHT22;45374;52.746;6.304;2023-05-10T11:41:28;14.50;99.90
59556;DHT22;45374;52.746;6.304;2023-05-10T11:43:55;14.60;99.90
59556;DHT22;45374;52.746;6.304;2023-05-10T11:46:23;14.70;99.90
59556;DHT22;45374;52.746;6.304;2023-05-10T11:48:51;14.70;99.90
59556;DHT22;45374;52.746;6.304;2023-05-10T11:51:21;14.70;99.90
59556;DHT22;45374;52.746;6.304;2023-05-10T11:53:47;14.70;99.90
59556;DHT22;45374;52.746;6.304;2023-05-10T11:56:12;14.70;99.90
59556;DHT22;45374;52.746;6.304;2023-05-10T11:58:39;14.80;99.90
59556;DHT22;45374;52.746;6.304;2023-05-10T12:01:06;14.80;99.90
59556;DHT22;45374;52.746;6.304;2023-05-10T12:03:32;14.90;99.90
59556;DHT22;45374;52.746;6.304;2023-05-10T12:05:58;15.00;99.90
59556;DHT22;45374;52.746;6.304;2023-05-10T12:08:25;15.00;99.90
59556;DHT22;45374;52.746;6.304;2023-05-10T12:10:53;15.10;99.90
59556;DHT22;45374;52.746;6.304;2023-05-10T12:13:19;15.20;99.90
59556;DHT22;45374;52.746;6.304;2023-05-10T12:15:46;15.20;99.90
59556;DHT22;45374;52.746;6.304;2023-05-10T12:18:14;15.40;99.90
59556;DHT22;45374;52.746;6.304;2023-05-10T12:20:47;15.40;99.90
59556;DHT22;45374;52.746;6.304;2023-05-10T12:23:15;15.40;99.90
59556;DHT22;45374;52.746;6.304;2023-05-10T12:25:40;15.40;99.90
59556;DHT22;45374;52.746;6.304;2023-05-10T12:28:24;15.40;99.90
59556;DHT22;45374;52.746;6.304;2023-05-10T12:30:53;15.40;99.90
59556;DHT22;45374;52.746;6.304;2023-05-10T12:33:19;15.40;99.90
59556;DHT22;45374;52.746;6.304;2023-05-10T12:35:45;15.30;99.90
59556;DHT22;45374;52.746;6.304;2023-05-10T12:41:03;15.20;99.90
59556;DHT22;45374;52.746;6.304;2023-05-10T12:43:29;15.20;99.90
59556;DHT22;45374;52.746;6.304;2023-05-10T12:45:56;15.20;99.90
59556;DHT22;45374;52.746;6.304;2023-05-10T12:48:22;15.20;99.90
59556;DHT22;45374;52.746;6.304;2023-05-10T12:50:47;15.20;99.90
59556;DHT22;45374;52.746;6.304;2023-05-10T12:53:14;15.20;99.90
59556;DHT22;45374;52.746;6.304;2023-05-10T12:55:43;15.20;99.90
59556;DHT22;45374;52.746;6.304;2023-05-10T12:58:09;15.20;99.90
59556;DHT22;45374;52.746;6.304;2023-05-10T13:00:35;15.20;99.90
59556;DHT22;45374;52.746;6.304;2023-05-10T13:03:00;15.20;99.90
59556;DHT22;45374;52.746;6.304;2023-05-10T13:05:26;15.20;99.90
59556;DHT22;45374;52.746;6.304;2023-05-10T13:07:51;15.20;99.90
59556;DHT22;45374;52.746;6.304;2023-05-10T13:10:17;15.20;99.90
59556;DHT22;45374;52.746;6.304;2023-05-10T13:12:42;15.20;99.90
59556;DHT22;45374;52.746;6.304;2023-05-10T13:15:08;15.20;99.90
59556;DHT22;45374;52.746;6.304;2023-05-10T13:17:53;15.20;99.90
59556;DHT22;45374;52.746;6.304;2023-05-10T13:20:19;15.20;99.90
59556;DHT22;45374;52.746;6.304;2023-05-10T13:22:45;15.30;99.90
59556;DHT22;45374;52.746;6.304;2023-05-10T13:25:12;15.30;99.90
59556;DHT22;45374;52.746;6.304;2023-05-10T13:27:39;15.30;99.90
59556;DHT22;45374;52.746;6.304;2023-05-10T13:30:05;15.30;99.90
59556;DHT22;45374;52.746;6.304;2023-05-10T13:32:33;15.30;99.90
59556;DHT22;45374;52.746;6.304;2023-05-10T13:34:58;15.30;99.90
59556;DHT22;45374;52.746;6.304;2023-05-10T13:37:24;15.30;99.90
59556;DHT22;45374;52.746;6.304;2023-05-10T13:39:49;15.30;99.90
59556;DHT22;45374;52.746;6.304;2023-05-10T13:42:15;15.30;99.90
59556;DHT22;45374;52.746;6.304;2023-05-10T13:44:41;15.20;99.90
59556;DHT22;45374;52.746;6.304;2023-05-10T13:47:06;15.20;99.90
59556;DHT22;45374;52.746;6.304;2023-05-10T13:49:32;15.20;99.90
59556;DHT22;45374;52.746;6.304;2023-05-10T13:52:01;15.40;99.90
59556;DHT22;45374;52.746;6.304;2023-05-10T13:54:35;15.40;99.90
59556;DHT22;45374;52.746;6.304;2023-05-10T13:57:02;15.40;99.90
59556;DHT22;45374;52.746;6.304;2023-05-10T13:59:28;15.50;99.90
59556;DHT22;45374;52.746;6.304;2023-05-10T14:01:54;15.50;99.90
59556;DHT22;45374;52.746;6.304;2023-05-10T14:04:20;15.50;99.90
59556;DHT22;45374;52.746;6.304;2023-05-10T14:06:46;15.50;99.90
59556;DHT22;45374;52.746;6.304;2023-05-10T14:09:11;15.50;99.90
59556;DHT22;45374;52.746;6.304;2023-05-10T14:11:37;15.60;99.90
59556;DHT22;45374;52.746;6.304;2023-05-10T14:14:07;15.60;99.90
59556;DHT22;45374;52.746;6.304;2023-05-10T14:16:32;15.70;99.90
59556;DHT22;45374;52.746;6.304;2023-05-10T14:18:58;15.70;99.90
59556;DHT22;45374;52.746;6.304;2023-05-10T14:21:24;15.60;99.90
59556;DHT22;45374;52.746;6.304;2023-05-10T14:23:49;15.60;99.90
59556;DHT22;45374;52.746;6.304;2023-05-10T14:26:15;15.70;99.90
59556;DHT22;45374;52.746;6.304;2023-05-10T14:28:40;15.60;99.90
59556;DHT22;45374;52.746;6.304;2023-05-10T14:31:06;15.70;99.90
59556;DHT22;45374;52.746;6.304;2023-05-10T14:33:31;15.80;99.90
59556;DHT22;45374;52.746;6.304;2023-05-10T14:35:57;15.90;99.90
59556;DHT22;45374;52.746;6.304;2023-05-10T14:38:23;15.90;99.90
59556;DHT22;45374;52.746;6.304;2023-05-10T14:40:48;15.90;99.90
59556;DHT22;45374;52.746;6.304;2023-05-10T14:43:15;15.80;99.90
59556;DHT22;45374;52.746;6.304;2023-05-10T14:45:41;15.90;99.90
59556;DHT22;45374;52.746;6.304;2023-05-10T14:48:06;15.90;99.90
59556;DHT22;45374;52.746;6.304;2023-05-10T14:50:36;15.80;99.90
59556;DHT22;45374;52.746;6.304;2023-05-10T14:53:01;15.90;99.90
59556;DHT22;45374;52.746;6.304;2023-05-10T14:55:27;15.80;99.90
59556;DHT22;45374;52.746;6.304;2023-05-10T14:57:53;15.80;99.90
59556;DHT22;45374;52.746;6.304;2023-05-10T15:00:18;15.70;99.90
59556;DHT22;45374;52.746;6.304;2023-05-10T15:02:44;15.70;99.90
59556;DHT22;45374;52.746;6.304;2023-05-10T15:05:10;15.70;99.90
59556;DHT22;45374;52.746;6.304;2023-05-10T15:07:35;15.60;99.90
59556;DHT22;45374;52.746;6.304;2023-05-10T15:10:01;15.70;99.90
59556;DHT22;45374;52.746;6.304;2023-05-10T15:12:26;15.70;99.90
59556;DHT22;45374;52.746;6.304;2023-05-10T15:14:52;15.70;99.90
59556;DHT22;45374;52.746;6.304;2023-05-10T15:17:17;15.70;99.90
59556;DHT22;45374;52.746;6.304;2023-05-10T15:19:43;15.70;99.90
59556;DHT22;45374;52.746;6.304;2023-05-10T15:22:08;15.60;99.90
59556;DHT22;45374;52.746;6.304;2023-05-10T15:24:34;15.60;99.90
59556;DHT22;45374;52.746;6.304;2023-05-10T15:26:59;15.60;99.90
59556;DHT22;45374;52.746;6.304;2023-05-10T15:29:26;15.60;99.90
59556;DHT22;45374;52.746;6.304;2023-05-10T15:31:51;15.60;99.90
59556;DHT22;45374;52.746;6.304;2023-05-10T15:34:18;15.50;99.90
59556;DHT22;45374;52.746;6.304;2023-05-10T15:36:44;15.50;99.90
59556;DHT22;45374;52.746;6.304;2023-05-10T15:39:18;15.40;99.90
59556;DHT22;45374;52.746;6.304;2023-05-10T15:41:43;15.40;99.90
59556;DHT22;45374;52.746;6.304;2023-05-10T15:44:09;15.30;99.90
59556;DHT22;45374;52.746;6.304;2023-05-10T15:46:34;15.30;99.90
59556;DHT22;45374;52.746;6.304;2023-05-10T15:49:00;15.20;99.90
59556;DHT22;45374;52.746;6.304;2023-05-10T15:51:26;15.20;99.90
59556;DHT22;45374;52.746;6.304;2023-05-10T15:53:51;15.20;99.90
59556;DHT22;45374;52.746;6.304;2023-05-10T15:56:17;15.20;99.90
59556;DHT22;45374;52.746;6.304;2023-05-10T15:58:42;15.10;99.90
59556;DHT22;45374;52.746;6.304;2023-05-10T16:01:09;15.10;99.90
59556;DHT22;45374;52.746;6.304;2023-05-10T16:03:36;15.10;99.90